KCRO2: Canadian River nr Konowa, OK

Data processed at Sat Dec 15 2018 23:32


All information presented herein is the property of the government of the United States of America and may be revised or deleted at any time without prior notice.
Dissemination of this information without the expressed written consent of the Public Affairs Office, Tulsa District U.S. Army Corps of Engineers is strictly prohibited.
These data are gathered electronically and, as presented, have not undergone any form of quality control. These data are not guaranteed to be valid or correct.
Go to home page.
Go to station list.
Go to home page.

Downstream station:


Previous Day
Next Day
Current Day
    
SHEF ID:       KCRO2     Canadian River nr Konowa, OK
STATION TYPE:  

               PRECIP     STAGE  RIV-FLOW   VOLTAGE  BAT-LOAD
                   in        ft       cfs      volt      volt
              Ccp-Rev   Ccp-Rev   Ccp-Rev   Ccp-Rev   Ccp-Rev
(US/Central)
12/15 00:00      0.00     11.51      5687     12.41     12.17
12/15 01:00      0.00     11.40      5384     12.41     12.17
12/15 02:00      0.00     11.26      5007     12.41     12.17
12/15 03:00      0.00     11.15      4718     12.33     12.17
12/15 04:00      0.00     11.08      4537     12.41     12.17
12/15 05:00      0.00     11.00      4335     12.41     12.17
12/15 06:00      0.00     10.95      4210     12.41     12.17
12/15 07:00      0.00     10.89      4062     12.41     12.09
12/15 08:00      0.00     10.83      3916     12.41     12.09
12/15 09:00      0.00     10.79      3819     12.65     12.33
12/15 10:00      0.00     10.74      3701     12.97     12.73
12/15 11:00      0.00     10.69      3583     13.05     12.81
12/15 12:00      0.00     10.65      3490     13.05     12.89
12/15 13:00      0.00     10.61      3395     13.05     12.89
12/15 14:00      0.00     10.57      3291     12.97     12.89
12/15 15:00      0.00     10.53      3189     12.81     12.73
12/15 16:00      0.00     10.50      3114     12.73     12.65
12/15 17:00      0.00     10.47      3039     12.73     12.57
12/15 18:00      0.00     10.44      2965     12.65     12.57
12/15 19:00      0.00     10.42      2916     12.65     12.49
12/15 20:00      0.00     10.40      2868     12.65     12.41
12/15 21:00      0.00     10.38      2820     12.65     12.41
12/15 22:00      0.00     10.36      2772     12.57     12.41
12/15 23:00      ----      ----      ----      ----      ----